createdAt,value
2019-01-08T00:00:14.402Z,9.45
2019-01-08T00:02:42.972Z,9.65
2019-01-08T00:05:11.550Z,8.28
2019-01-08T00:07:40.114Z,8.35
2019-01-08T00:10:08.703Z,8.73
2019-01-08T00:12:37.364Z,9.38
2019-01-08T00:15:06.015Z,9.38
2019-01-08T00:17:34.578Z,8.30
2019-01-08T00:20:03.164Z,7.90
2019-01-08T00:22:31.726Z,8.60
2019-01-08T00:25:00.306Z,7.37
2019-01-08T00:27:28.955Z,6.72
2019-01-08T00:29:57.563Z,7.33
2019-01-08T00:32:26.128Z,7.55
2019-01-08T00:34:54.720Z,6.75
2019-01-08T00:37:23.278Z,6.03
2019-01-08T00:39:51.868Z,6.95
2019-01-08T00:42:20.431Z,7.15
2019-01-08T00:44:49.014Z,7.12
2019-01-08T00:47:17.579Z,6.47
2019-01-08T00:49:46.167Z,6.60
2019-01-08T00:52:14.727Z,6.35
2019-01-08T00:54:43.307Z,6.00
2019-01-08T00:57:11.875Z,5.65
2019-01-08T00:59:40.459Z,5.85
2019-01-08T01:02:09.023Z,6.20
2019-01-08T01:04:37.606Z,5.37
2019-01-08T01:07:06.168Z,5.12
2019-01-08T01:09:34.750Z,6.37
2019-01-08T01:12:03.310Z,5.67
2019-01-08T01:14:31.870Z,5.87
2019-01-08T01:17:00.456Z,5.28
2019-01-08T01:19:29.022Z,5.95
2019-01-08T01:21:57.598Z,5.05
2019-01-08T01:24:26.160Z,4.45
2019-01-08T01:26:54.902Z,5.37
2019-01-08T01:29:23.468Z,4.80
2019-01-08T01:31:52.047Z,4.62
2019-01-08T01:34:20.607Z,5.10
2019-01-08T01:36:49.191Z,5.10
2019-01-08T01:39:17.764Z,4.45
2019-01-08T01:41:46.341Z,4.78
2019-01-08T01:44:14.904Z,4.80
2019-01-08T01:46:43.483Z,4.92
2019-01-08T01:49:12.043Z,4.80
2019-01-08T01:51:40.627Z,4.50
2019-01-08T01:54:09.193Z,4.28
2019-01-08T01:56:37.775Z,4.67
2019-01-08T01:59:08.578Z,4.67
2019-01-08T02:01:36.570Z,3.83
2019-01-08T02:04:05.127Z,4.10
2019-01-08T02:06:33.711Z,3.80
2019-01-08T02:09:02.270Z,4.50
2019-01-08T02:11:30.855Z,4.60
2019-01-08T02:13:59.415Z,4.15
2019-01-08T02:16:27.998Z,4.08
2019-01-08T02:18:56.554Z,4.10
2019-01-08T02:21:25.139Z,3.50
2019-01-08T02:23:53.705Z,3.67
2019-01-08T02:26:22.287Z,3.10
2019-01-08T02:28:50.851Z,3.30
2019-01-08T02:31:19.428Z,3.35
2019-01-08T02:33:47.983Z,4.15
2019-01-08T02:36:16.567Z,3.70
2019-01-08T02:38:45.131Z,3.45
2019-01-08T02:41:13.780Z,3.90
2019-01-08T02:43:42.371Z,4.10
2019-01-08T02:46:10.989Z,4.20
2019-01-08T02:48:39.730Z,4.00
2019-01-08T02:51:08.283Z,3.30
2019-01-08T02:53:36.875Z,3.80
2019-01-08T02:56:05.430Z,3.30
2019-01-08T02:58:34.087Z,3.70
2019-01-08T03:01:02.647Z,2.33
2019-01-08T03:03:31.227Z,3.67
2019-01-08T03:05:59.787Z,3.17
2019-01-08T03:08:28.373Z,2.72
2019-01-08T03:10:56.931Z,3.80
2019-01-08T03:13:25.510Z,3.35
2019-01-08T03:15:54.070Z,3.20
2019-01-08T03:18:22.651Z,3.22
2019-01-08T03:20:51.287Z,2.80
2019-01-08T03:23:19.866Z,3.22
2019-01-08T03:25:48.422Z,2.83
2019-01-08T03:28:17.006Z,2.72
2019-01-08T03:30:45.570Z,2.10
2019-01-08T03:33:14.147Z,2.33
2019-01-08T03:35:42.708Z,2.50
2019-01-08T03:38:11.295Z,2.15
2019-01-08T03:40:39.855Z,1.95
2019-01-08T03:43:08.436Z,2.12
2019-01-08T03:45:36.999Z,2.00
2019-01-08T03:48:05.584Z,1.65
2019-01-08T03:50:34.148Z,1.87
2019-01-08T03:53:02.728Z,1.40
2019-01-08T03:55:31.291Z,1.45
2019-01-08T03:57:59.867Z,1.32
2019-01-08T04:00:28.423Z,1.35
2019-01-08T04:02:56.998Z,1.65
2019-01-08T04:05:25.560Z,1.37
2019-01-08T04:07:54.138Z,1.98
2019-01-08T04:10:22.698Z,1.00
2019-01-08T04:12:51.259Z,1.27
2019-01-08T04:15:19.839Z,1.10
2019-01-08T04:17:48.403Z,0.80
2019-01-08T04:20:16.988Z,0.90
2019-01-08T04:22:45.547Z,1.25
2019-01-08T04:25:14.127Z,0.50
2019-01-08T04:27:42.687Z,0.90
2019-01-08T04:30:11.271Z,0.93
2019-01-08T04:32:39.831Z,0.80
2019-01-08T04:35:08.410Z,0.60
2019-01-08T04:37:36.975Z,0.70
2019-01-08T04:40:06.500Z,0.68
2019-01-08T04:42:35.063Z,0.70
2019-01-08T04:45:03.643Z,0.80
2019-01-08T04:47:32.202Z,0.72
2019-01-08T04:50:00.784Z,0.98
2019-01-08T04:52:30.582Z,0.65
2019-01-08T04:54:59.218Z,0.82
2019-01-08T04:57:27.783Z,0.80
2019-01-08T04:59:59.022Z,0.70
2019-01-08T05:02:26.563Z,0.80
2019-01-08T05:04:55.138Z,0.70
2019-01-08T05:07:23.696Z,0.70
2019-01-08T05:09:52.280Z,0.88
2019-01-08T05:12:20.838Z,0.80
2019-01-08T05:14:49.426Z,0.70
2019-01-08T05:17:17.982Z,0.70
2019-01-08T05:19:46.564Z,0.65
2019-01-08T05:22:15.126Z,0.78
2019-01-08T05:24:43.702Z,0.50
2019-01-08T05:27:12.267Z,1.32
2019-01-08T05:29:40.850Z,0.82
2019-01-08T05:32:09.411Z,0.53
2019-01-08T05:34:37.995Z,0.82
2019-01-08T05:37:06.555Z,0.57
2019-01-08T05:39:35.140Z,0.90
2019-01-08T05:42:03.699Z,1.20
2019-01-08T05:44:32.283Z,0.80
2019-01-08T05:47:00.843Z,0.62
2019-01-08T05:49:29.512Z,0.78
2019-01-08T05:51:57.983Z,0.85
2019-01-08T05:54:26.570Z,0.70
2019-01-08T05:56:55.136Z,1.30
2019-01-08T05:59:23.716Z,1.00
2019-01-08T06:01:52.275Z,1.17
2019-01-08T06:04:20.859Z,0.90
2019-01-08T06:06:49.415Z,0.70
2019-01-08T06:09:17.995Z,1.30
2019-01-08T06:11:46.555Z,1.00
2019-01-08T06:14:15.135Z,1.00
2019-01-08T06:16:43.695Z,0.98
2019-01-08T06:19:12.276Z,1.17
2019-01-08T06:21:40.907Z,1.25
2019-01-08T06:24:09.415Z,1.10
2019-01-08T06:26:37.974Z,1.00
2019-01-08T06:29:06.554Z,1.30
2019-01-08T06:31:35.116Z,1.17
2019-01-08T06:34:03.698Z,1.37
2019-01-08T06:36:32.264Z,1.40
2019-01-08T06:39:00.827Z,1.25
2019-01-08T06:41:29.423Z,1.15
2019-01-08T06:43:57.983Z,1.12
2019-01-08T06:46:26.563Z,1.50
2019-01-08T06:48:55.130Z,1.30
2019-01-08T06:51:23.715Z,1.32
2019-01-08T06:53:52.272Z,1.30
2019-01-08T06:56:20.914Z,2.10
2019-01-08T06:58:49.467Z,1.77
2019-01-08T07:01:18.045Z,1.30
2019-01-08T07:03:46.607Z,1.30
2019-01-08T07:06:15.186Z,1.20
2019-01-08T07:08:43.748Z,1.30
2019-01-08T07:11:12.330Z,1.00
2019-01-08T07:13:40.888Z,1.60
2019-01-08T07:16:09.470Z,1.05
2019-01-08T07:18:38.022Z,1.40
2019-01-08T07:21:06.607Z,0.95
2019-01-08T07:23:35.167Z,1.10
2019-01-08T07:26:03.750Z,1.10
2019-01-08T07:28:32.315Z,1.40
2019-01-08T07:31:00.893Z,1.30
2019-01-08T07:33:29.452Z,1.62
2019-01-08T07:35:58.031Z,1.45
2019-01-08T07:38:26.595Z,1.85
2019-01-08T07:40:55.180Z,1.70
2019-01-08T07:43:23.740Z,2.70
2019-01-08T07:45:52.327Z,1.70
2019-01-08T07:48:20.950Z,1.70
2019-01-08T07:50:49.531Z,1.20
2019-01-08T07:53:18.091Z,2.10
2019-01-08T07:55:46.670Z,1.25
2019-01-08T07:58:15.231Z,1.77
2019-01-08T08:00:49.976Z,2.00
2019-01-08T08:03:14.022Z,1.47
2019-01-08T08:05:42.603Z,1.20
2019-01-08T08:08:11.163Z,1.30
2019-01-08T08:10:39.738Z,1.40
2019-01-08T08:13:08.301Z,1.50
2019-01-08T08:15:36.879Z,1.50
2019-01-08T08:18:05.431Z,1.27
2019-01-08T08:20:34.019Z,1.45
2019-01-08T08:23:02.588Z,1.62
2019-01-08T08:25:31.163Z,1.67
2019-01-08T08:27:59.732Z,2.00
2019-01-08T08:30:28.312Z,2.12
2019-01-08T08:32:56.870Z,2.08
2019-01-08T08:35:25.451Z,3.02
2019-01-08T08:37:54.011Z,1.80
2019-01-08T08:40:22.590Z,1.98
2019-01-08T08:42:51.151Z,2.30
2019-01-08T08:45:19.735Z,2.17
2019-01-08T08:47:48.303Z,2.65
2019-01-08T08:50:16.883Z,2.42
2019-01-08T08:52:45.448Z,2.70
2019-01-08T08:55:14.039Z,3.60
2019-01-08T08:57:42.603Z,4.22
2019-01-08T09:00:12.624Z,3.50
2019-01-08T09:02:41.183Z,3.33
2019-01-08T09:05:09.826Z,3.50
2019-01-08T09:07:38.419Z,3.02
2019-01-08T09:10:07.051Z,3.05
2019-01-08T09:12:35.626Z,2.70
2019-01-08T09:15:04.359Z,3.45
2019-01-08T09:17:32.940Z,3.62
2019-01-08T09:20:01.573Z,3.92
2019-01-08T09:22:30.154Z,3.95
2019-01-08T09:24:58.725Z,3.55
2019-01-08T09:27:27.306Z,4.15
2019-01-08T09:29:55.867Z,3.70
2019-01-08T09:32:24.446Z,3.75
2019-01-08T09:34:53.006Z,4.40
2019-01-08T09:37:21.592Z,3.83
2019-01-08T09:39:50.153Z,5.10
2019-01-08T09:42:18.735Z,5.25
2019-01-08T09:44:47.295Z,3.70
2019-01-08T09:47:15.874Z,7.95
2019-01-08T09:49:44.439Z,6.70
2019-01-08T09:52:13.028Z,5.03
2019-01-08T09:54:41.591Z,4.60
2019-01-08T09:57:10.169Z,5.85
2019-01-08T09:59:38.723Z,4.10
2019-01-08T10:02:07.302Z,4.35
2019-01-08T10:04:35.863Z,3.95
2019-01-08T10:07:04.446Z,4.00
2019-01-08T10:09:33.006Z,4.35
2019-01-08T10:12:01.586Z,3.50
2019-01-08T10:14:30.147Z,3.75
2019-01-08T10:16:58.726Z,3.67
2019-01-08T10:19:27.287Z,3.65
2019-01-08T10:21:55.867Z,4.12
2019-01-08T10:24:24.428Z,3.15
2019-01-08T10:26:53.013Z,3.47
2019-01-08T10:29:21.563Z,3.20
2019-01-08T10:31:50.157Z,3.77
2019-01-08T10:34:18.719Z,3.60
2019-01-08T10:36:47.370Z,3.40
2019-01-08T10:39:15.938Z,3.10
2019-01-08T10:41:44.528Z,2.83
2019-01-08T10:44:13.083Z,3.08
2019-01-08T10:46:41.668Z,2.65
2019-01-08T10:49:10.227Z,2.60
2019-01-08T10:51:38.803Z,2.45
2019-01-08T10:54:07.373Z,2.40
2019-01-08T10:56:35.951Z,2.02
2019-01-08T10:59:07.713Z,1.60
2019-01-08T11:01:40.539Z,1.95
2019-01-08T11:04:04.999Z,1.52
2019-01-08T11:06:33.579Z,1.70
2019-01-08T11:09:02.143Z,2.20
2019-01-08T11:11:30.719Z,2.30
2019-01-08T11:13:59.275Z,2.58
2019-01-08T11:16:27.854Z,2.83
2019-01-08T11:18:56.415Z,2.70
2019-01-08T11:21:24.994Z,2.50
2019-01-08T11:23:53.555Z,2.12
2019-01-08T11:26:22.135Z,1.80
2019-01-08T11:28:50.695Z,2.00
2019-01-08T11:31:19.250Z,1.50
2019-01-08T11:33:47.833Z,2.08
2019-01-08T11:36:16.395Z,1.80
2019-01-08T11:38:44.970Z,1.70
2019-01-08T11:41:13.530Z,1.60
2019-01-08T11:43:42.115Z,1.57
2019-01-08T11:46:10.675Z,1.50
2019-01-08T11:48:39.251Z,1.37
2019-01-08T11:51:07.815Z,1.60
2019-01-08T11:53:36.812Z,1.77
2019-01-08T11:56:05.368Z,1.45
2019-01-08T11:58:33.953Z,1.50
2019-01-08T12:01:02.506Z,1.40
2019-01-08T12:03:31.094Z,1.70
2019-01-08T12:05:59.655Z,1.30
2019-01-08T12:08:28.239Z,1.65
2019-01-08T12:10:56.800Z,1.85
2019-01-08T12:13:25.384Z,1.62
2019-01-08T12:15:53.938Z,1.60
2019-01-08T12:18:22.515Z,1.57
2019-01-08T12:20:51.074Z,1.90
2019-01-08T12:23:19.653Z,2.50
2019-01-08T12:25:48.215Z,1.90
2019-01-08T12:28:16.798Z,1.87
2019-01-08T12:30:45.359Z,2.00
2019-01-08T12:33:13.940Z,2.45
2019-01-08T12:35:42.503Z,2.27
2019-01-08T12:38:11.078Z,2.10
2019-01-08T12:40:39.639Z,1.75
2019-01-08T12:43:08.214Z,1.92
2019-01-08T12:45:36.781Z,2.00
2019-01-08T12:48:05.364Z,1.92
2019-01-08T12:50:33.923Z,2.70
2019-01-08T12:53:02.506Z,2.30
2019-01-08T12:55:31.063Z,2.08
2019-01-08T12:57:59.646Z,3.10
2019-01-08T13:00:28.204Z,3.02
2019-01-08T13:02:56.787Z,3.12
2019-01-08T13:05:25.342Z,2.35
2019-01-08T13:07:53.923Z,2.15
2019-01-08T13:10:22.482Z,2.00
2019-01-08T13:12:51.231Z,2.33
2019-01-08T13:15:19.791Z,2.67
2019-01-08T13:17:48.371Z,2.58
2019-01-08T13:20:16.931Z,3.35
2019-01-08T13:22:45.516Z,2.80
2019-01-08T13:25:14.078Z,2.95
2019-01-08T13:27:42.655Z,2.70
2019-01-08T13:30:11.215Z,2.90
2019-01-08T13:32:39.802Z,2.50
2019-01-08T13:35:08.432Z,3.45
2019-01-08T13:37:37.011Z,3.40
2019-01-08T13:40:06.407Z,3.25
2019-01-08T13:42:34.982Z,3.70
2019-01-08T13:45:04.080Z,4.20
2019-01-08T13:47:32.663Z,3.20
2019-01-08T13:50:01.230Z,3.47
2019-01-08T13:52:29.808Z,2.98
2019-01-08T13:54:58.364Z,2.77
2019-01-08T13:57:26.920Z,3.22
2019-01-08T13:59:55.498Z,3.00
2019-01-08T14:02:31.645Z,3.45
2019-01-08T14:04:54.287Z,2.80
2019-01-08T14:07:22.847Z,2.77
2019-01-08T14:09:52.262Z,2.35
2019-01-08T14:12:20.823Z,3.20
2019-01-08T14:14:49.402Z,3.00
2019-01-08T14:17:17.968Z,2.47
2019-01-08T14:19:46.547Z,2.70
2019-01-08T14:22:15.109Z,2.02
2019-01-08T14:24:43.692Z,2.22
2019-01-08T14:27:12.282Z,2.12
2019-01-08T14:29:40.830Z,2.52
2019-01-08T14:32:09.391Z,1.67
2019-01-08T14:34:37.971Z,2.00
2019-01-08T14:37:06.599Z,2.37
2019-01-08T14:39:35.184Z,2.12
2019-01-08T14:42:03.815Z,2.40
2019-01-08T14:44:32.399Z,2.47
2019-01-08T14:47:01.026Z,2.58
2019-01-08T14:49:29.539Z,2.20
2019-01-08T14:51:58.100Z,2.75
2019-01-08T14:54:26.679Z,2.80
2019-01-08T14:56:55.240Z,2.47
2019-01-08T14:59:23.818Z,2.05
2019-01-08T15:01:52.382Z,1.30
2019-01-08T15:04:20.962Z,1.60
2019-01-08T15:06:49.526Z,1.30
2019-01-08T15:09:18.107Z,1.75
2019-01-08T15:11:46.670Z,1.50
2019-01-08T15:14:15.247Z,1.32
2019-01-08T15:16:43.807Z,1.70
2019-01-08T15:19:12.378Z,1.40
2019-01-08T15:21:40.938Z,1.37
2019-01-08T15:24:09.575Z,1.60
2019-01-08T15:26:38.079Z,1.87
2019-01-08T15:29:06.659Z,1.95
2019-01-08T15:31:35.221Z,2.35
2019-01-08T15:34:03.803Z,1.42
2019-01-08T15:36:32.367Z,1.87
2019-01-08T15:39:00.951Z,1.30
2019-01-08T15:41:29.515Z,1.42
2019-01-08T15:43:58.095Z,2.45
2019-01-08T15:46:26.659Z,2.45
2019-01-08T15:48:55.234Z,1.80
2019-01-08T15:51:23.801Z,2.55
2019-01-08T15:53:52.382Z,3.10
2019-01-08T15:56:20.943Z,1.45
2019-01-08T15:58:49.527Z,2.00
2019-01-08T16:01:18.091Z,2.50
2019-01-08T16:03:46.675Z,2.87
2019-01-08T16:06:15.239Z,2.80
2019-01-08T16:08:43.826Z,3.27
2019-01-08T16:11:12.384Z,3.00
2019-01-08T16:13:40.997Z,4.55
2019-01-08T16:16:09.559Z,3.90
2019-01-08T16:18:38.148Z,3.55
2019-01-08T16:21:06.711Z,3.92
2019-01-08T16:23:35.294Z,2.12
2019-01-08T16:26:03.860Z,4.78
2019-01-08T16:28:32.497Z,2.27
2019-01-08T16:31:01.078Z,5.30
2019-01-08T16:33:29.648Z,4.42
2019-01-08T16:35:58.225Z,4.33
2019-01-08T16:38:26.791Z,5.15
2019-01-08T16:40:55.388Z,2.50
2019-01-08T16:43:23.947Z,3.80
2019-01-08T16:45:52.531Z,3.22
2019-01-08T16:48:21.095Z,3.75
2019-01-08T16:50:49.683Z,2.87
2019-01-08T16:53:18.246Z,3.45
2019-01-08T16:55:46.877Z,2.85
2019-01-08T16:58:15.387Z,3.98
2019-01-08T17:00:43.970Z,3.47
2019-01-08T17:03:12.538Z,4.37
2019-01-08T17:05:41.122Z,5.50
2019-01-08T17:08:09.682Z,5.45
2019-01-08T17:10:38.264Z,7.70
2019-01-08T17:13:06.821Z,5.62
2019-01-08T17:15:35.406Z,4.60
2019-01-08T17:18:03.966Z,4.90
2019-01-08T17:20:32.550Z,4.20
2019-01-08T17:23:01.116Z,3.10
2019-01-08T17:25:29.701Z,3.83
2019-01-08T17:27:58.254Z,4.70
2019-01-08T17:30:26.841Z,3.62
2019-01-08T17:32:55.408Z,3.30
2019-01-08T17:35:23.996Z,3.87
2019-01-08T17:37:52.611Z,4.60
2019-01-08T17:40:21.183Z,3.10
2019-01-08T17:42:49.735Z,2.72
2019-01-08T17:45:18.326Z,3.20
2019-01-08T17:47:46.887Z,3.25
2019-01-08T17:50:15.475Z,4.17
2019-01-08T17:52:44.957Z,3.02
2019-01-08T17:55:13.521Z,3.83
2019-01-08T17:57:42.214Z,3.75
2019-01-08T18:00:11.512Z,3.70
2019-01-08T18:02:41.110Z,3.95
2019-01-08T18:05:09.700Z,3.00
2019-01-08T18:07:38.263Z,3.12
2019-01-08T18:10:07.891Z,3.92
2019-01-08T18:12:36.450Z,4.37
2019-01-08T18:15:05.774Z,4.35
2019-01-08T18:17:36.011Z,3.80
2019-01-08T18:20:05.840Z,4.37
2019-01-08T18:22:34.397Z,3.77
2019-01-08T18:25:03.157Z,4.70
2019-01-08T18:27:31.719Z,4.10
2019-01-08T18:30:00.307Z,5.12
2019-01-08T18:32:28.870Z,3.83
2019-01-08T18:34:57.464Z,4.60
2019-01-08T18:37:26.030Z,3.80
2019-01-08T18:39:54.723Z,2.90
2019-01-08T18:42:23.238Z,3.85
2019-01-08T18:44:51.817Z,3.12
2019-01-08T18:47:20.378Z,3.05
2019-01-08T18:49:48.967Z,3.10
2019-01-08T18:52:17.546Z,3.05
2019-01-08T18:54:46.140Z,2.47
2019-01-08T18:57:14.699Z,2.40
2019-01-08T18:59:43.259Z,2.12
2019-01-08T19:02:11.839Z,2.95
2019-01-08T19:04:40.403Z,2.85
2019-01-08T19:07:08.996Z,2.95
2019-01-08T19:09:37.554Z,2.70
2019-01-08T19:12:06.135Z,2.77
2019-01-08T19:14:36.138Z,2.65
2019-01-08T19:17:04.788Z,2.75
2019-01-08T19:19:33.355Z,2.35
2019-01-08T19:22:01.938Z,3.50
2019-01-08T19:24:30.498Z,3.87
2019-01-08T19:26:59.087Z,3.77
2019-01-08T19:29:27.646Z,3.45
2019-01-08T19:31:56.232Z,2.40
2019-01-08T19:34:24.794Z,3.02
2019-01-08T19:36:55.720Z,3.83
2019-01-08T19:39:24.278Z,3.30
2019-01-08T19:41:52.859Z,3.50
2019-01-08T19:44:21.426Z,2.92
2019-01-08T19:46:50.005Z,3.42
2019-01-08T19:49:18.586Z,3.02
2019-01-08T19:51:47.165Z,3.12
2019-01-08T19:54:15.723Z,2.65
2019-01-08T19:56:44.308Z,3.10
2019-01-08T19:59:12.871Z,3.15
2019-01-08T20:01:41.451Z,3.50
2019-01-08T20:04:17.448Z,3.90
2019-01-08T20:06:40.247Z,3.60
2019-01-08T20:09:08.811Z,3.30
2019-01-08T20:11:37.398Z,3.15
2019-01-08T20:14:06.026Z,3.00
2019-01-08T20:16:34.611Z,3.20
2019-01-08T20:19:03.170Z,2.37
2019-01-08T20:21:32.135Z,3.12
2019-01-08T20:24:06.332Z,2.52
2019-01-08T20:26:30.983Z,2.60
2019-01-08T20:28:59.543Z,2.83
2019-01-08T20:31:28.128Z,2.15
2019-01-08T20:33:56.691Z,2.05
2019-01-08T20:36:25.275Z,2.10
2019-01-08T20:38:53.830Z,1.90
2019-01-08T20:41:22.417Z,1.35
2019-01-08T20:43:50.975Z,2.02
2019-01-08T20:46:19.554Z,1.75
2019-01-08T20:48:48.123Z,1.42
2019-01-08T20:51:16.703Z,1.65
2019-01-08T20:53:45.263Z,1.60
2019-01-08T20:56:13.846Z,1.12
2019-01-08T20:58:42.403Z,1.47
2019-01-08T21:01:10.993Z,1.60
2019-01-08T21:03:39.550Z,1.60
2019-01-08T21:06:08.132Z,1.52
2019-01-08T21:08:36.690Z,1.50
2019-01-08T21:11:06.226Z,1.77
2019-01-08T21:13:34.828Z,1.77
2019-01-08T21:16:03.412Z,1.60
2019-01-08T21:18:31.966Z,1.60
2019-01-08T21:21:00.542Z,1.77
2019-01-08T21:23:29.104Z,1.77
2019-01-08T21:25:57.685Z,1.92
2019-01-08T21:28:26.247Z,2.05
2019-01-08T21:30:54.798Z,1.55
2019-01-08T21:33:23.380Z,1.70
2019-01-08T21:35:51.934Z,1.77
2019-01-08T21:38:20.515Z,1.80
2019-01-08T21:40:49.077Z,1.50
2019-01-08T21:43:17.666Z,1.37
2019-01-08T21:45:46.224Z,1.55
2019-01-08T21:48:14.806Z,1.20
2019-01-08T21:50:43.367Z,1.60
2019-01-08T21:53:11.946Z,1.30
2019-01-08T21:55:40.500Z,1.62
2019-01-08T21:58:09.088Z,2.05
2019-01-08T22:00:37.638Z,1.80
2019-01-08T22:03:06.982Z,1.67
2019-01-08T22:05:35.612Z,1.52
2019-01-08T22:08:04.363Z,1.82
2019-01-08T22:10:32.931Z,1.52
2019-01-08T22:13:01.511Z,1.90
2019-01-08T22:15:30.071Z,1.32
2019-01-08T22:17:58.650Z,3.35
2019-01-08T22:20:27.215Z,1.15
2019-01-08T22:22:55.786Z,1.25
2019-01-08T22:25:24.352Z,1.77
2019-01-08T22:27:52.930Z,1.32
2019-01-08T22:30:21.491Z,1.50
2019-01-08T22:32:50.146Z,1.45
2019-01-08T22:35:18.699Z,1.52
2019-01-08T22:37:47.283Z,1.72
2019-01-08T22:40:15.843Z,1.32
2019-01-08T22:42:44.426Z,1.55
2019-01-08T22:45:12.983Z,1.15
2019-01-08T22:47:41.567Z,1.45
2019-01-08T22:50:10.198Z,1.85
2019-01-08T22:52:38.851Z,3.12
2019-01-08T22:55:07.588Z,2.45
2019-01-08T22:57:36.240Z,1.85
2019-01-08T23:00:15.086Z,2.00
2019-01-08T23:02:43.726Z,2.10
2019-01-08T23:05:12.360Z,1.92
2019-01-08T23:07:40.942Z,1.92
2019-01-08T23:10:09.502Z,2.15
2019-01-08T23:12:38.082Z,1.95
2019-01-08T23:15:07.683Z,1.90
2019-01-08T23:17:36.259Z,1.98
2019-01-08T23:20:07.259Z,1.67
2019-01-08T23:22:35.839Z,1.40
2019-01-08T23:25:04.543Z,1.40
2019-01-08T23:27:33.123Z,1.70
2019-01-08T23:30:01.683Z,1.90
2019-01-08T23:32:30.258Z,2.15
2019-01-08T23:34:58.815Z,2.00
2019-01-08T23:37:27.394Z,1.65
2019-01-08T23:39:55.954Z,1.50
2019-01-08T23:42:24.539Z,1.75
2019-01-08T23:44:53.100Z,1.70
2019-01-08T23:47:21.682Z,1.60
2019-01-08T23:49:50.244Z,1.30
2019-01-08T23:52:27.583Z,1.30
2019-01-08T23:54:57.730Z,1.55
2019-01-08T23:57:27.603Z,1.47
2019-01-08T23:59:56.163Z,1.80
